sensor_id;sensor_type;location;lat;lon;timestamp;pressure;altitude;pressure_sealevel;temperature;humidity
6514;BME280;3290;47.716;9.070;2023-09-12T00:00:45;96633.44;;;20.88;98.01
6514;BME280;3290;47.716;9.070;2023-09-12T00:03:11;96627.06;;;20.84;98.49
6514;BME280;3290;47.716;9.070;2023-09-12T00:05:37;96628.16;;;20.83;97.01
6514;BME280;3290;47.716;9.070;2023-09-12T00:08:02;96638.38;;;20.76;97.22
6514;BME280;3290;47.716;9.070;2023-09-12T00:10:29;96635.72;;;20.76;96.91
6514;BME280;3290;47.716;9.070;2023-09-12T00:12:54;96636.28;;;20.73;97.70
6514;BME280;3290;47.716;9.070;2023-09-12T00:15:20;96629.16;;;20.69;98.82
6514;BME280;3290;47.716;9.070;2023-09-12T00:17:45;96619.72;;;20.76;98.40
6514;BME280;3290;47.716;9.070;2023-09-12T00:20:11;96615.41;;;20.80;98.54
6514;BME280;3290;47.716;9.070;2023-09-12T00:22:36;96616.56;;;20.74;99.49
6514;BME280;3290;47.716;9.070;2023-09-12T00:25:02;96617.56;;;20.78;98.63
6514;BME280;3290;47.716;9.070;2023-09-12T00:27:27;96612.25;;;20.78;99.10
6514;BME280;3290;47.716;9.070;2023-09-12T00:29:52;96613.94;;;20.69;99.94
6514;BME280;3290;47.716;9.070;2023-09-12T00:32:18;96623.22;;;20.72;99.38
6514;BME280;3290;47.716;9.070;2023-09-12T00:34:43;96625.97;;;20.67;99.47
6514;BME280;3290;47.716;9.070;2023-09-12T00:37:09;96620.66;;;20.67;100.00
6514;BME280;3290;47.716;9.070;2023-09-12T00:39:35;96612.81;;;20.75;99.76
6514;BME280;3290;47.716;9.070;2023-09-12T00:42:00;96619.72;;;20.76;99.98
6514;BME280;3290;47.716;9.070;2023-09-12T00:44:25;96616.66;;;20.64;99.59
6514;BME280;3290;47.716;9.070;2023-09-12T00:46:52;96626.84;;;20.57;100.00
6514;BME280;3290;47.716;9.070;2023-09-12T00:49:18;96628.09;;;20.42;100.00
6514;BME280;3290;47.716;9.070;2023-09-12T00:51:45;96624.19;;;20.57;99.03
6514;BME280;3290;47.716;9.070;2023-09-12T00:54:11;96617.66;;;20.45;99.21
6514;BME280;3290;47.716;9.070;2023-09-12T00:56:36;96622.66;;;20.51;99.37
6514;BME280;3290;47.716;9.070;2023-09-12T00:59:02;96626.78;;;20.62;98.96
6514;BME280;3290;47.716;9.070;2023-09-12T01:01:29;96624.69;;;20.59;98.79
6514;BME280;3290;47.716;9.070;2023-09-12T01:03:55;96630.19;;;20.45;99.81
6514;BME280;3290;47.716;9.070;2023-09-12T01:06:24;96630.78;;;20.37;100.00
6514;BME280;3290;47.716;9.070;2023-09-12T01:08:52;96632.91;;;20.40;99.99
6514;BME280;3290;47.716;9.070;2023-09-12T01:11:18;96620.31;;;20.22;100.00
6514;BME280;3290;47.716;9.070;2023-09-12T01:13:45;96625.13;;;20.20;100.00
6514;BME280;3290;47.716;9.070;2023-09-12T01:16:10;96622.03;;;20.08;100.00
6514;BME280;3290;47.716;9.070;2023-09-12T01:18:36;96622.13;;;19.98;100.00
6514;BME280;3290;47.716;9.070;2023-09-12T01:21:28;96626.44;;;19.94;100.00
6514;BME280;3290;47.716;9.070;2023-09-12T01:29:18;96620.75;;;20.06;100.00
6514;BME280;3290;47.716;9.070;2023-09-12T01:31:47;96622.25;;;19.88;100.00
6514;BME280;3290;47.716;9.070;2023-09-12T01:34:14;96620.72;;;19.77;100.00
6514;BME280;3290;47.716;9.070;2023-09-12T01:36:39;96627.16;;;19.66;100.00
6514;BME280;3290;47.716;9.070;2023-09-12T01:39:05;96623.34;;;19.82;100.00
6514;BME280;3290;47.716;9.070;2023-09-12T01:41:32;96622.81;;;19.75;100.00
6514;BME280;3290;47.716;9.070;2023-09-12T01:44:01;96619.09;;;19.76;100.00
6514;BME280;3290;47.716;9.070;2023-09-12T01:46:27;96626.03;;;19.77;100.00
6514;BME280;3290;47.716;9.070;2023-09-12T01:48:54;96633.41;;;19.85;100.00
6514;BME280;3290;47.716;9.070;2023-09-12T01:51:21;96628.16;;;19.75;100.00
6514;BME280;3290;47.716;9.070;2023-09-12T01:53:49;96636.09;;;19.85;100.00
6514;BME280;3290;47.716;9.070;2023-09-12T01:56:16;96632.06;;;19.88;100.00
6514;BME280;3290;47.716;9.070;2023-09-12T01:58:42;96640.22;;;19.96;100.00
6514;BME280;3290;47.716;9.070;2023-09-12T02:01:08;96641.72;;;20.07;100.00
6514;BME280;3290;47.716;9.070;2023-09-12T02:03:33;96635.00;;;20.19;100.00
6514;BME280;3290;47.716;9.070;2023-09-12T02:05:59;96644.50;;;20.25;100.00
6514;BME280;3290;47.716;9.070;2023-09-12T02:08:24;96639.78;;;20.17;100.00
6514;BME280;3290;47.716;9.070;2023-09-12T02:10:49;96645.94;;;20.13;100.00
6514;BME280;3290;47.716;9.070;2023-09-12T02:13:15;96643.88;;;20.05;100.00
6514;BME280;3290;47.716;9.070;2023-09-12T02:15:40;96649.38;;;19.85;100.00
6514;BME280;3290;47.716;9.070;2023-09-12T02:18:05;96648.00;;;19.88;100.00
6514;BME280;3290;47.716;9.070;2023-09-12T02:20:31;96651.13;;;20.00;100.00
6514;BME280;3290;47.716;9.070;2023-09-12T02:22:57;96650.00;;;20.06;100.00
6514;BME280;3290;47.716;9.070;2023-09-12T02:25:22;96652.94;;;20.04;100.00
6514;BME280;3290;47.716;9.070;2023-09-12T02:27:48;96650.97;;;19.86;100.00
6514;BME280;3290;47.716;9.070;2023-09-12T02:30:13;96648.94;;;19.68;100.00
6514;BME280;3290;47.716;9.070;2023-09-12T02:32:38;96650.25;;;19.71;100.00
6514;BME280;3290;47.716;9.070;2023-09-12T02:35:06;96655.34;;;19.67;100.00
6514;BME280;3290;47.716;9.070;2023-09-12T02:37:32;96650.13;;;19.53;100.00
6514;BME280;3290;47.716;9.070;2023-09-12T02:39:57;96654.25;;;19.35;100.00
6514;BME280;3290;47.716;9.070;2023-09-12T02:42:22;96660.25;;;19.46;100.00
6514;BME280;3290;47.716;9.070;2023-09-12T02:44:49;96656.34;;;19.76;100.00
6514;BME280;3290;47.716;9.070;2023-09-12T02:47:14;96657.63;;;19.84;100.00
6514;BME280;3290;47.716;9.070;2023-09-12T02:49:40;96660.53;;;19.87;100.00
6514;BME280;3290;47.716;9.070;2023-09-12T02:52:05;96652.69;;;19.67;100.00
6514;BME280;3290;47.716;9.070;2023-09-12T02:54:30;96644.69;;;19.72;100.00
6514;BME280;3290;47.716;9.070;2023-09-12T02:56:56;96647.31;;;19.77;100.00
6514;BME280;3290;47.716;9.070;2023-09-12T02:59:21;96644.34;;;19.84;100.00
6514;BME280;3290;47.716;9.070;2023-09-12T03:01:46;96645.53;;;19.63;100.00
6514;BME280;3290;47.716;9.070;2023-09-12T03:04:11;96646.38;;;19.59;100.00
6514;BME280;3290;47.716;9.070;2023-09-12T03:06:37;96644.31;;;19.46;100.00
6514;BME280;3290;47.716;9.070;2023-09-12T03:09:02;96643.84;;;19.39;100.00
6514;BME280;3290;47.716;9.070;2023-09-12T03:11:28;96645.63;;;19.05;100.00
6514;BME280;3290;47.716;9.070;2023-09-12T03:13:54;96639.47;;;19.20;100.00
6514;BME280;3290;47.716;9.070;2023-09-12T03:16:20;96637.63;;;19.10;100.00
6514;BME280;3290;47.716;9.070;2023-09-12T03:18:45;96633.41;;;19.09;100.00
6514;BME280;3290;47.716;9.070;2023-09-12T03:21:11;96634.97;;;19.15;100.00
6514;BME280;3290;47.716;9.070;2023-09-12T03:23:36;96645.53;;;19.25;100.00
6514;BME280;3290;47.716;9.070;2023-09-12T03:26:05;96637.91;;;19.52;100.00
6514;BME280;3290;47.716;9.070;2023-09-12T03:28:31;96635.13;;;19.66;100.00
6514;BME280;3290;47.716;9.070;2023-09-12T03:31:08;96641.91;;;19.49;100.00
6514;BME280;3290;47.716;9.070;2023-09-12T03:33:34;96637.47;;;19.35;100.00
6514;BME280;3290;47.716;9.070;2023-09-12T03:35:59;96639.56;;;19.43;100.00
6514;BME280;3290;47.716;9.070;2023-09-12T03:38:24;96643.28;;;19.42;100.00
6514;BME280;3290;47.716;9.070;2023-09-12T03:40:50;96639.47;;;19.15;100.00
6514;BME280;3290;47.716;9.070;2023-09-12T03:43:15;96636.59;;;19.11;100.00
6514;BME280;3290;47.716;9.070;2023-09-12T03:45:41;96640.56;;;19.09;100.00
6514;BME280;3290;47.716;9.070;2023-09-12T03:48:06;96629.16;;;19.03;100.00
6514;BME280;3290;47.716;9.070;2023-09-12T03:50:31;96638.09;;;19.22;100.00
6514;BME280;3290;47.716;9.070;2023-09-12T03:52:57;96637.00;;;19.28;100.00
6514;BME280;3290;47.716;9.070;2023-09-12T03:55:22;96644.44;;;19.26;100.00
6514;BME280;3290;47.716;9.070;2023-09-12T03:57:47;96644.28;;;19.13;100.00
6514;BME280;3290;47.716;9.070;2023-09-12T04:00:13;96643.41;;;19.22;100.00
6514;BME280;3290;47.716;9.070;2023-09-12T04:02:39;96644.94;;;19.33;100.00
6514;BME280;3290;47.716;9.070;2023-09-12T04:05:04;96643.94;;;19.24;100.00
6514;BME280;3290;47.716;9.070;2023-09-12T04:07:30;96640.25;;;19.20;100.00
6514;BME280;3290;47.716;9.070;2023-09-12T04:09:55;96640.34;;;19.43;100.00
6514;BME280;3290;47.716;9.070;2023-09-12T04:12:20;96644.47;;;19.21;100.00
6514;BME280;3290;47.716;9.070;2023-09-12T04:14:48;96646.88;;;19.23;100.00
6514;BME280;3290;47.716;9.070;2023-09-12T04:17:14;96649.72;;;19.36;100.00
6514;BME280;3290;47.716;9.070;2023-09-12T04:19:39;96655.59;;;19.28;100.00
6514;BME280;3290;47.716;9.070;2023-09-12T04:22:04;96654.84;;;19.23;100.00
6514;BME280;3290;47.716;9.070;2023-09-12T04:24:30;96641.31;;;19.19;100.00
6514;BME280;3290;47.716;9.070;2023-09-12T04:26:55;96646.19;;;18.97;100.00
6514;BME280;3290;47.716;9.070;2023-09-12T04:29:20;96654.16;;;19.02;100.00
6514;BME280;3290;47.716;9.070;2023-09-12T04:31:46;96652.00;;;19.09;100.00
6514;BME280;3290;47.716;9.070;2023-09-12T04:34:11;96646.63;;;19.19;100.00
6514;BME280;3290;47.716;9.070;2023-09-12T04:36:36;96650.16;;;19.00;100.00
6514;BME280;3290;47.716;9.070;2023-09-12T04:39:02;96651.25;;;18.99;100.00
6514;BME280;3290;47.716;9.070;2023-09-12T04:41:27;96639.84;;;18.93;100.00
6514;BME280;3290;47.716;9.070;2023-09-12T04:43:52;96647.00;;;18.98;100.00
6514;BME280;3290;47.716;9.070;2023-09-12T04:46:18;96658.97;;;18.85;100.00
6514;BME280;3290;47.716;9.070;2023-09-12T04:48:43;96656.91;;;18.78;100.00
6514;BME280;3290;47.716;9.070;2023-09-12T04:51:09;96652.13;;;18.75;100.00
6514;BME280;3290;47.716;9.070;2023-09-12T04:53:34;96644.66;;;18.86;100.00
6514;BME280;3290;47.716;9.070;2023-09-12T04:56:03;96645.16;;;18.93;100.00
6514;BME280;3290;47.716;9.070;2023-09-12T04:58:29;96648.34;;;18.85;100.00
6514;BME280;3290;47.716;9.070;2023-09-12T05:00:55;96645.97;;;18.84;100.00
6514;BME280;3290;47.716;9.070;2023-09-12T05:03:21;96651.53;;;18.87;100.00
6514;BME280;3290;47.716;9.070;2023-09-12T05:05:48;96652.31;;;18.98;100.00
6514;BME280;3290;47.716;9.070;2023-09-12T05:08:13;96658.09;;;19.10;100.00
6514;BME280;3290;47.716;9.070;2023-09-12T05:10:39;96662.31;;;19.16;100.00
6514;BME280;3290;47.716;9.070;2023-09-12T05:13:05;96660.91;;;19.28;100.00
6514;BME280;3290;47.716;9.070;2023-09-12T05:15:30;96664.22;;;19.05;100.00
6514;BME280;3290;47.716;9.070;2023-09-12T05:17:55;96662.06;;;19.12;100.00
6514;BME280;3290;47.716;9.070;2023-09-12T05:20:21;96655.91;;;19.22;100.00
6514;BME280;3290;47.716;9.070;2023-09-12T05:22:46;96655.72;;;19.03;100.00
6514;BME280;3290;47.716;9.070;2023-09-12T05:25:12;96661.03;;;19.03;100.00
6514;BME280;3290;47.716;9.070;2023-09-12T05:27:37;96658.38;;;19.08;100.00
6514;BME280;3290;47.716;9.070;2023-09-12T05:30:03;96666.84;;;19.10;100.00
6514;BME280;3290;47.716;9.070;2023-09-12T05:32:28;96674.75;;;19.25;100.00
6514;BME280;3290;47.716;9.070;2023-09-12T05:34:53;96671.03;;;19.21;100.00
6514;BME280;3290;47.716;9.070;2023-09-12T05:37:19;96665.47;;;19.23;100.00
6514;BME280;3290;47.716;9.070;2023-09-12T05:39:46;96677.56;;;19.43;100.00
6514;BME280;3290;47.716;9.070;2023-09-12T05:42:11;96683.09;;;19.52;100.00
6514;BME280;3290;47.716;9.070;2023-09-12T05:44:37;96681.31;;;19.75;100.00
6514;BME280;3290;47.716;9.070;2023-09-12T05:47:02;96683.94;;;19.80;100.00
6514;BME280;3290;47.716;9.070;2023-09-12T05:49:28;96685.00;;;19.84;100.00
6514;BME280;3290;47.716;9.070;2023-09-12T05:51:53;96681.03;;;19.82;100.00
6514;BME280;3290;47.716;9.070;2023-09-12T05:54:19;96676.13;;;19.99;100.00
6514;BME280;3290;47.716;9.070;2023-09-12T05:56:44;96675.66;;;20.25;100.00
6514;BME280;3290;47.716;9.070;2023-09-12T05:59:10;96675.94;;;20.47;100.00
6514;BME280;3290;47.716;9.070;2023-09-12T06:01:35;96688.53;;;20.41;100.00
6514;BME280;3290;47.716;9.070;2023-09-12T06:04:00;96683.44;;;20.45;100.00
6514;BME280;3290;47.716;9.070;2023-09-12T06:06:27;96685.91;;;20.64;100.00
6514;BME280;3290;47.716;9.070;2023-09-12T06:08:52;96686.91;;;20.68;100.00
6514;BME280;3290;47.716;9.070;2023-09-12T06:11:18;96688.28;;;20.66;100.00
6514;BME280;3290;47.716;9.070;2023-09-12T06:13:44;96693.63;;;20.89;100.00
6514;BME280;3290;47.716;9.070;2023-09-12T06:16:09;96693.16;;;20.82;100.00
6514;BME280;3290;47.716;9.070;2023-09-12T06:18:34;96690.56;;;20.77;100.00
6514;BME280;3290;47.716;9.070;2023-09-12T06:21:00;96691.31;;;20.83;100.00
6514;BME280;3290;47.716;9.070;2023-09-12T06:23:29;96689.06;;;21.13;100.00
6514;BME280;3290;47.716;9.070;2023-09-12T06:25:54;96691.88;;;21.44;100.00
6514;BME280;3290;47.716;9.070;2023-09-12T06:28:27;96690.56;;;21.97;99.28
6514;BME280;3290;47.716;9.070;2023-09-12T06:30:53;96694.44;;;22.22;97.39
6514;BME280;3290;47.716;9.070;2023-09-12T06:33:18;96706.09;;;22.58;96.27
6514;BME280;3290;47.716;9.070;2023-09-12T06:35:44;96703.94;;;22.60;94.95
6514;BME280;3290;47.716;9.070;2023-09-12T06:38:12;96700.59;;;22.36;96.17
6514;BME280;3290;47.716;9.070;2023-09-12T06:40:37;96699.56;;;22.51;95.70
6514;BME280;3290;47.716;9.070;2023-09-12T06:43:03;96696.31;;;22.67;94.52
6514;BME280;3290;47.716;9.070;2023-09-12T06:45:28;96697.50;;;22.61;96.52
6514;BME280;3290;47.716;9.070;2023-09-12T06:47:55;96690.38;;;22.56;97.44
6514;BME280;3290;47.716;9.070;2023-09-12T06:50:21;96686.38;;;22.41;98.14
6514;BME280;3290;47.716;9.070;2023-09-12T06:52:46;96691.16;;;22.57;97.18
6514;BME280;3290;47.716;9.070;2023-09-12T06:55:11;96685.41;;;22.50;97.42
6514;BME280;3290;47.716;9.070;2023-09-12T06:57:37;96690.75;;;22.50;98.55
6514;BME280;3290;47.716;9.070;2023-09-12T07:00:03;96690.59;;;22.73;98.19
6514;BME280;3290;47.716;9.070;2023-09-12T07:02:32;96690.22;;;22.93;98.06
6514;BME280;3290;47.716;9.070;2023-09-12T07:04:57;96689.13;;;22.94;98.98
6514;BME280;3290;47.716;9.070;2023-09-12T07:07:23;96697.06;;;22.99;98.29
6514;BME280;3290;47.716;9.070;2023-09-12T07:09:49;96697.97;;;22.94;99.34
6514;BME280;3290;47.716;9.070;2023-09-12T07:12:14;96701.63;;;22.98;99.19
6514;BME280;3290;47.716;9.070;2023-09-12T07:14:39;96707.63;;;22.91;100.00
6514;BME280;3290;47.716;9.070;2023-09-12T07:17:05;96708.81;;;23.11;98.91
6514;BME280;3290;47.716;9.070;2023-09-12T07:19:31;96703.47;;;23.25;98.96
6514;BME280;3290;47.716;9.070;2023-09-12T07:21:56;96697.91;;;23.48;98.27
6514;BME280;3290;47.716;9.070;2023-09-12T07:24:25;96703.50;;;24.08;94.97
6514;BME280;3290;47.716;9.070;2023-09-12T07:26:51;96698.22;;;24.38;92.66
6514;BME280;3290;47.716;9.070;2023-09-12T07:29:16;96698.38;;;24.20;92.79
6514;BME280;3290;47.716;9.070;2023-09-12T07:31:42;96695.09;;;24.23;93.39
6514;BME280;3290;47.716;9.070;2023-09-12T07:34:07;96697.88;;;24.61;90.89
6514;BME280;3290;47.716;9.070;2023-09-12T07:36:33;96705.88;;;24.53;90.10
6514;BME280;3290;47.716;9.070;2023-09-12T07:38:58;96704.19;;;24.65;88.87
6514;BME280;3290;47.716;9.070;2023-09-12T07:41:24;96706.03;;;24.56;90.11
6514;BME280;3290;47.716;9.070;2023-09-12T07:43:49;96709.81;;;25.16;87.36
6514;BME280;3290;47.716;9.070;2023-09-12T07:46:15;96704.47;;;24.86;88.96
6514;BME280;3290;47.716;9.070;2023-09-12T07:48:40;96707.28;;;24.51;89.88
6514;BME280;3290;47.716;9.070;2023-09-12T07:51:13;96709.22;;;24.58;90.48
6514;BME280;3290;47.716;9.070;2023-09-12T07:53:39;96709.47;;;25.09;89.10
6514;BME280;3290;47.716;9.070;2023-09-12T07:56:05;96701.28;;;25.61;85.22
6514;BME280;3290;47.716;9.070;2023-09-12T07:58:30;96718.22;;;25.78;85.59
6514;BME280;3290;47.716;9.070;2023-09-12T08:00:56;96719.00;;;26.12;82.50
6514;BME280;3290;47.716;9.070;2023-09-12T08:03:21;96710.50;;;26.27;81.90
6514;BME280;3290;47.716;9.070;2023-09-12T08:05:56;96706.53;;;26.41;81.79
6514;BME280;3290;47.716;9.070;2023-09-12T08:08:22;96709.34;;;26.19;81.64
6514;BME280;3290;47.716;9.070;2023-09-12T08:10:48;96717.78;;;27.05;78.36
6514;BME280;3290;47.716;9.070;2023-09-12T08:13:14;96713.16;;;26.18;80.84
6514;BME280;3290;47.716;9.070;2023-09-12T08:15:39;96714.59;;;25.99;82.58
6514;BME280;3290;47.716;9.070;2023-09-12T08:18:05;96718.19;;;25.95;83.63
6514;BME280;3290;47.716;9.070;2023-09-12T08:20:30;96721.84;;;26.16;82.37
6514;BME280;3290;47.716;9.070;2023-09-12T08:22:55;96722.56;;;25.57;83.84
6514;BME280;3290;47.716;9.070;2023-09-12T08:25:21;96717.41;;;25.77;84.02
6514;BME280;3290;47.716;9.070;2023-09-12T08:30:21;96714.38;;;25.71;82.80
6514;BME280;3290;47.716;9.070;2023-09-12T08:35:22;96713.81;;;26.32;79.23
6514;BME280;3290;47.716;9.070;2023-09-12T08:37:47;96712.84;;;25.78;80.77
6514;BME280;3290;47.716;9.070;2023-09-12T08:40:13;96707.66;;;26.23;78.68
6514;BME280;3290;47.716;9.070;2023-09-12T08:42:40;96706.81;;;26.57;76.96
6514;BME280;3290;47.716;9.070;2023-09-12T08:45:13;96714.38;;;26.63;77.66
6514;BME280;3290;47.716;9.070;2023-09-12T08:47:41;96715.03;;;26.60;78.26
6514;BME280;3290;47.716;9.070;2023-09-12T08:50:10;96708.97;;;27.54;75.17
6514;BME280;3290;47.716;9.070;2023-09-12T08:52:37;96704.22;;;26.77;77.78
6514;BME280;3290;47.716;9.070;2023-09-12T08:55:02;96707.06;;;26.89;77.57
6514;BME280;3290;47.716;9.070;2023-09-12T08:57:30;96705.31;;;27.79;73.50
6514;BME280;3290;47.716;9.070;2023-09-12T08:59:59;96697.31;;;27.90;72.10
6514;BME280;3290;47.716;9.070;2023-09-12T09:02:27;96718.59;;;26.89;76.50
6514;BME280;3290;47.716;9.070;2023-09-12T09:04:54;96708.03;;;27.21;75.82
6514;BME280;3290;47.716;9.070;2023-09-12T09:07:20;96697.88;;;28.04;72.99
6514;BME280;3290;47.716;9.070;2023-09-12T09:09:47;96706.94;;;28.20;72.22
6514;BME280;3290;47.716;9.070;2023-09-12T09:12:14;96708.19;;;28.55;69.82
6514;BME280;3290;47.716;9.070;2023-09-12T09:14:39;96699.88;;;28.27;69.42
6514;BME280;3290;47.716;9.070;2023-09-12T09:17:05;96701.69;;;28.88;68.58
6514;BME280;3290;47.716;9.070;2023-09-12T09:19:44;96689.88;;;29.04;68.47
6514;BME280;3290;47.716;9.070;2023-09-12T09:22:10;96681.06;;;28.71;66.64
6514;BME280;3290;47.716;9.070;2023-09-12T09:24:35;96680.69;;;29.05;66.04
6514;BME280;3290;47.716;9.070;2023-09-12T09:27:01;96674.69;;;29.11;65.21
6514;BME280;3290;47.716;9.070;2023-09-12T09:29:27;96667.19;;;29.05;63.67
6514;BME280;3290;47.716;9.070;2023-09-12T09:31:59;96660.88;;;29.99;62.26
6514;BME280;3290;47.716;9.070;2023-09-12T09:34:25;96667.84;;;29.73;61.37
6514;BME280;3290;47.716;9.070;2023-09-12T09:36:54;96655.16;;;30.70;57.82
6514;BME280;3290;47.716;9.070;2023-09-12T09:39:27;96671.66;;;29.13;63.59
6514;BME280;3290;47.716;9.070;2023-09-12T09:41:56;96664.41;;;30.54;60.27
6514;BME280;3290;47.716;9.070;2023-09-12T09:44:23;96675.22;;;28.69;65.49
6514;BME280;3290;47.716;9.070;2023-09-12T09:46:54;96660.19;;;29.16;63.88
6514;BME280;3290;47.716;9.070;2023-09-12T09:49:20;96667.59;;;28.83;64.13
6514;BME280;3290;47.716;9.070;2023-09-12T09:51:46;96664.22;;;29.81;61.83
6514;BME280;3290;47.716;9.070;2023-09-12T09:54:12;96661.56;;;29.34;63.80
6514;BME280;3290;47.716;9.070;2023-09-12T09:56:46;96656.50;;;29.20;62.62
6514;BME280;3290;47.716;9.070;2023-09-12T09:59:14;96650.44;;;29.23;57.19
6514;BME280;3290;47.716;9.070;2023-09-12T10:01:41;96650.31;;;29.32;58.68
6514;BME280;3290;47.716;9.070;2023-09-12T10:04:08;96654.13;;;29.54;58.90
6514;BME280;3290;47.716;9.070;2023-09-12T10:06:35;96639.50;;;31.07;56.50
6514;BME280;3290;47.716;9.070;2023-09-12T10:09:09;96651.06;;;30.76;57.31
6514;BME280;3290;47.716;9.070;2023-09-12T10:11:35;96657.41;;;30.53;57.36
6514;BME280;3290;47.716;9.070;2023-09-12T10:14:06;96649.56;;;30.21;58.77
6514;BME280;3290;47.716;9.070;2023-09-12T10:16:36;96656.59;;;31.41;54.89
6514;BME280;3290;47.716;9.070;2023-09-12T10:19:11;96649.09;;;32.81;50.52
6514;BME280;3290;47.716;9.070;2023-09-12T10:21:58;96642.97;;;31.22;56.24
6514;BME280;3290;47.716;9.070;2023-09-12T10:24:27;96647.56;;;30.61;57.17
6514;BME280;3290;47.716;9.070;2023-09-12T10:26:54;96644.44;;;29.77;61.46
6514;BME280;3290;47.716;9.070;2023-09-12T10:29:21;96637.53;;;31.38;57.57
6514;BME280;3290;47.716;9.070;2023-09-12T10:31:48;96629.06;;;31.73;56.35
6514;BME280;3290;47.716;9.070;2023-09-12T10:34:14;96633.47;;;32.15;54.73
6514;BME280;3290;47.716;9.070;2023-09-12T10:36:41;96631.19;;;31.83;54.67
6514;BME280;3290;47.716;9.070;2023-09-12T10:39:08;96630.47;;;31.18;57.80
6514;BME280;3290;47.716;9.070;2023-09-12T10:41:38;96616.69;;;31.57;55.73
6514;BME280;3290;47.716;9.070;2023-09-12T10:44:11;96615.88;;;31.72;54.37
6514;BME280;3290;47.716;9.070;2023-09-12T10:46:40;96628.09;;;31.47;55.40
6514;BME280;3290;47.716;9.070;2023-09-12T10:49:10;96630.41;;;31.98;54.44
6514;BME280;3290;47.716;9.070;2023-09-12T10:51:39;96629.50;;;31.41;54.85
6514;BME280;3290;47.716;9.070;2023-09-12T10:54:06;96620.44;;;32.84;52.89
6514;BME280;3290;47.716;9.070;2023-09-12T10:56:33;96620.94;;;33.63;48.68
6514;BME280;3290;47.716;9.070;2023-09-12T11:01:34;96614.59;;;31.85;51.73
6514;BME280;3290;47.716;9.070;2023-09-12T11:06:44;96601.03;;;31.85;53.99
6514;BME280;3290;47.716;9.070;2023-09-12T11:09:23;96599.97;;;32.90;49.21
6514;BME280;3290;47.716;9.070;2023-09-12T11:14:19;96603.31;;;31.83;53.53
6514;BME280;3290;47.716;9.070;2023-09-12T11:19:43;96605.72;;;31.50;54.03
6514;BME280;3290;47.716;9.070;2023-09-12T11:22:29;96597.19;;;31.86;53.22
6514;BME280;3290;47.716;9.070;2023-09-12T11:24:57;96586.75;;;31.69;53.01
6514;BME280;3290;47.716;9.070;2023-09-12T11:27:31;96582.38;;;31.98;50.49
6514;BME280;3290;47.716;9.070;2023-09-12T11:30:04;96577.19;;;32.50;50.45
6514;BME280;3290;47.716;9.070;2023-09-12T11:32:31;96574.16;;;32.99;49.86
6514;BME280;3290;47.716;9.070;2023-09-12T11:34:59;96571.34;;;32.29;51.41
6514;BME280;3290;47.716;9.070;2023-09-12T11:37:26;96579.97;;;31.59;52.32
6514;BME280;3290;47.716;9.070;2023-09-12T11:39:53;96562.03;;;32.49;51.24
6514;BME280;3290;47.716;9.070;2023-09-12T11:42:19;96566.34;;;32.31;51.23
6514;BME280;3290;47.716;9.070;2023-09-12T11:44:48;96569.22;;;31.82;52.82
6514;BME280;3290;47.716;9.070;2023-09-12T11:47:14;96562.88;;;31.93;52.16
6514;BME280;3290;47.716;9.070;2023-09-12T11:49:41;96560.94;;;31.56;54.61
6514;BME280;3290;47.716;9.070;2023-09-12T11:52:14;96567.97;;;30.77;57.08
6514;BME280;3290;47.716;9.070;2023-09-12T11:54:42;96564.16;;;31.27;52.90
6514;BME280;3290;47.716;9.070;2023-09-12T11:57:09;96552.53;;;31.61;53.09
6514;BME280;3290;47.716;9.070;2023-09-12T11:59:39;96554.16;;;31.65;53.60
6514;BME280;3290;47.716;9.070;2023-09-12T12:02:08;96556.06;;;31.12;54.38
6514;BME280;3290;47.716;9.070;2023-09-12T12:04:34;96557.28;;;30.99;54.88
6514;BME280;3290;47.716;9.070;2023-09-12T12:07:00;96545.75;;;31.70;52.88
6514;BME280;3290;47.716;9.070;2023-09-12T12:09:32;96548.03;;;32.06;52.34
6514;BME280;3290;47.716;9.070;2023-09-12T12:12:09;96543.19;;;32.15;51.43
6514;BME280;3290;47.716;9.070;2023-09-12T12:14:35;96538.53;;;32.82;48.05
6514;BME280;3290;47.716;9.070;2023-09-12T12:17:08;96525.22;;;33.25;47.39
6514;BME280;3290;47.716;9.070;2023-09-12T12:19:35;96531.03;;;33.49;45.60
6514;BME280;3290;47.716;9.070;2023-09-12T12:22:02;96533.06;;;32.78;49.81
6514;BME280;3290;47.716;9.070;2023-09-12T12:24:36;96528.97;;;32.66;49.12
6514;BME280;3290;47.716;9.070;2023-09-12T12:27:03;96533.25;;;31.47;52.34
6514;BME280;3290;47.716;9.070;2023-09-12T12:29:30;96521.03;;;32.35;49.18
6514;BME280;3290;47.716;9.070;2023-09-12T12:31:59;96529.34;;;32.01;50.08
6514;BME280;3290;47.716;9.070;2023-09-12T12:34:26;96532.41;;;31.62;53.04
6514;BME280;3290;47.716;9.070;2023-09-12T12:36:56;96529.66;;;31.24;53.72
6514;BME280;3290;47.716;9.070;2023-09-12T12:39:21;96522.84;;;31.49;52.09
6514;BME280;3290;47.716;9.070;2023-09-12T12:41:47;96525.47;;;32.02;51.79
6514;BME280;3290;47.716;9.070;2023-09-12T12:44:13;96525.09;;;32.22;48.64
6514;BME280;3290;47.716;9.070;2023-09-12T12:46:53;96518.91;;;31.84;50.82
6514;BME280;3290;47.716;9.070;2023-09-12T12:49:20;96515.66;;;31.75;48.95
6514;BME280;3290;47.716;9.070;2023-09-12T12:51:47;96504.94;;;32.23;48.15
6514;BME280;3290;47.716;9.070;2023-09-12T12:54:13;96502.75;;;32.51;44.86
6514;BME280;3290;47.716;9.070;2023-09-12T12:56:39;96501.03;;;32.87;43.91
6514;BME280;3290;47.716;9.070;2023-09-12T12:59:06;96511.34;;;32.34;44.91
6514;BME280;3290;47.716;9.070;2023-09-12T13:01:37;96493.09;;;33.59;41.59
6514;BME280;3290;47.716;9.070;2023-09-12T13:04:09;96496.06;;;34.13;39.34
6514;BME280;3290;47.716;9.070;2023-09-12T13:06:35;96493.50;;;34.30;39.08
6514;BME280;3290;47.716;9.070;2023-09-12T13:09:02;96494.41;;;34.05;38.66
6514;BME280;3290;47.716;9.070;2023-09-12T13:11:30;96487.84;;;34.49;40.18
6514;BME280;3290;47.716;9.070;2023-09-12T13:13:55;96482.69;;;34.34;39.91
6514;BME280;3290;47.716;9.070;2023-09-12T13:16:21;96479.09;;;34.69;39.79
6514;BME280;3290;47.716;9.070;2023-09-12T13:18:47;96477.59;;;33.63;40.99
6514;BME280;3290;47.716;9.070;2023-09-12T13:21:12;96473.03;;;34.43;40.74
6514;BME280;3290;47.716;9.070;2023-09-12T13:23:38;96478.16;;;34.51;38.93
6514;BME280;3290;47.716;9.070;2023-09-12T13:26:04;96484.44;;;34.19;41.46
6514;BME280;3290;47.716;9.070;2023-09-12T13:28:30;96478.28;;;34.26;38.35
6514;BME280;3290;47.716;9.070;2023-09-12T13:30:56;96479.25;;;34.43;37.58
6514;BME280;3290;47.716;9.070;2023-09-12T13:33:22;96483.47;;;33.65;40.53
6514;BME280;3290;47.716;9.070;2023-09-12T13:35:51;96495.47;;;31.73;45.58